Time;durP1;ratioP1;P1;durP2;ratioP2;P2;SDS_P1;SDS_P2;PMS_P1;PMS_P2;Temp;Humidity;BMP_temperature;BMP_pressure;BME280_temperature;BME280_humidity;BME280_pressure;Samples;Min_cycle;Max_cycle;Signal;HPM_P1;HPM_P2
2021/07/04 00:00:47;;;;;;;;;;;;;;;20.82;51.11;99513.78;4483374;31;32550;-73
2021/07/04 00:03:15;;;;;;;1.55;1.35;;;;;;;20.44;52.83;99512.06;4491328;31;33674;-73
2021/07/04 00:05:44;;;;;;;;;;;;;;;20.45;52.98;99513.72;4487808;31;34611;-74
2021/07/04 00:08:14;;;;;;;1.85;1.05;;;;;;;20.45;53.13;99505.63;4491525;31;34581;-72
2021/07/04 00:10:47;;;;;;;1.92;1.08;;;;;;;20.52;52.49;99506.44;4488509;31;33263;-73
2021/07/04 00:13:15;;;;;;;1.23;0.73;;;;;;;20.31;53.22;99509.44;4491864;31;34279;-76
2021/07/04 00:15:44;;;;;;;1.83;1.25;;;;;;;20.44;52.60;99511.22;4481559;31;35211;-73
2021/07/04 00:18:18;;;;;;;3.67;1.67;;;;;;;20.46;52.62;99507.28;4481843;31;34358;-71
2021/07/04 00:20:47;;;;;;;2.37;1.67;;;;;;;20.62;51.73;99510.31;4482938;31;32900;-74
2021/07/04 00:23:15;;;;;;;1.02;0.98;;;;;;;20.45;52.29;99505.63;4476087;31;32839;-72
2021/07/04 00:25:43;;;;;;;2.15;1.70;;;;;;;20.47;52.48;99500.81;4476565;31;34974;-74
2021/07/04 00:28:18;;;;;;;1.48;1.10;;;;;;;20.30;53.00;99506.94;4489233;31;34316;-75
2021/07/04 00:30:46;;;;;;;2.25;1.55;;;;;;;20.50;52.02;99510.38;4491362;31;33573;-73
2021/07/04 00:33:29;;;;;;;2.08;1.73;;;;;;;20.52;51.88;99509.12;4478911;31;33760;-71
2021/07/04 00:35:57;;;;;;;1.10;0.85;;;;;;;20.33;52.69;99509.19;4489555;31;34711;-74
2021/07/04 00:38:26;;;;;;;1.83;1.70;;;;;;;20.31;52.82;99498.63;4491097;31;34976;-73
2021/07/04 00:40:55;;;;;;;1.75;1.25;;;;;;;20.38;52.46;99501.31;4489249;31;33173;-72
2021/07/04 00:43:23;;;;;;;1.92;1.40;;;;;;;19.93;54.20;99504.91;4491327;31;33493;-74
2021/07/04 00:45:51;;;;;;;1.48;1.00;;;;;;;19.85;54.60;99503.28;4489023;31;36045;-74
2021/07/04 00:48:19;;;;;;;;;;;;;;;19.80;55.18;99507.66;4491457;31;34790;-74
2021/07/04 00:50:47;;;;;;;5.12;1.87;;;;;;;20.03;54.34;99500.75;4491190;31;33868;-74
2021/07/04 00:53:16;;;;;;;1.20;1.05;;;;;;;20.25;52.94;99498.63;4489917;31;33900;-74
2021/07/04 00:55:50;;;;;;;3.40;1.35;;;;;;;20.15;53.53;99496.38;4490813;31;36208;-74
2021/07/04 00:58:19;;;;;;;1.08;0.95;;;;;;;20.20;52.99;99493.03;4485511;31;34024;-73
2021/07/04 01:00:51;;;;;;;1.52;1.42;;;;;;;20.11;53.43;99488.91;4477641;31;33435;-75
2021/07/04 01:03:19;;;;;;;1.87;1.73;;;;;;;20.26;52.75;99486.78;4477236;31;33360;-71
2021/07/04 01:05:48;;;;;;;3.30;2.20;;;;;;;20.12;53.17;99486.00;4476940;31;34955;-75
2021/07/04 01:08:16;;;;;;;1.87;1.70;;;;;;;20.02;53.72;99485.56;4490103;31;33949;-73
2021/07/04 01:10:45;;;;;;;1.27;1.08;;;;;;;20.18;52.99;99478.94;4477468;31;32968;-70
2021/07/04 01:13:13;;;;;;;1.50;1.17;;;;;;;20.23;52.74;99479.09;4483224;31;34236;-75
2021/07/04 01:15:43;;;;;;;2.55;1.50;;;;;;;20.14;52.96;99488.47;4475862;31;35059;-73
2021/07/04 01:18:11;;;;;;;5.53;1.90;;;;;;;20.22;52.63;99488.25;4481147;31;34685;-73
2021/07/04 01:20:41;;;;;;;1.95;0.90;;;;;;;20.09;53.32;99483.72;4471555;31;32449;-71
2021/07/04 01:23:14;;;;;;;3.33;1.62;;;;;;;20.17;52.71;99483.50;4491158;31;33775;-75
2021/07/04 01:25:49;;;;;;;3.72;1.45;;;;;;;19.97;53.58;99474.59;4488754;31;34452;-74
2021/07/04 01:28:17;;;;;;;2.28;1.52;;;;;;;19.84;55.79;99480.03;4489434;31;34722;-74
2021/07/04 01:30:48;;;;;;;1.90;1.45;;;;;;;20.06;54.03;99480.59;4490746;31;34061;-75
2021/07/04 01:33:17;;;;;;;2.28;1.65;;;;;;;19.96;54.35;99477.50;4489423;31;34385;-73
2021/07/04 01:35:45;;;;;;;1.37;1.23;;;;;;;20.12;53.41;99474.38;4490668;31;35093;-74
2021/07/04 01:38:14;;;;;;;3.35;1.83;;;;;;;19.80;55.36;99476.06;4486657;31;33572;-74
2021/07/04 01:40:41;;;;;;;;;;;;;;;19.87;55.33;99482.28;4482363;31;33563;-75
2021/07/04 01:43:09;;;;;;;1.92;1.35;;;;;;;20.18;53.44;99482.44;4484797;31;34761;-74
2021/07/04 01:45:39;;;;;;;1.80;1.50;;;;;;;20.12;53.29;99479.78;4484811;31;35925;-70
2021/07/04 01:48:08;;;;;;;2.08;1.83;;;;;;;19.88;54.26;99478.56;4480546;31;34217;-74
2021/07/04 01:50:41;;;;;;;3.47;1.55;;;;;;;19.56;55.72;99476.72;4486408;31;32222;-74
2021/07/04 01:53:09;;;;;;;1.73;1.62;;;;;;;19.63;55.87;99477.56;4489481;31;33319;-72
2021/07/04 01:55:38;;;;;;;2.67;1.15;;;;;;;19.69;55.70;99483.97;4474808;31;33840;-74
2021/07/04 01:58:07;;;;;;;2.50;1.05;;;;;;;19.68;55.83;99480.47;4484799;31;34276;-75
2021/07/04 02:00:37;;;;;;;1.55;1.45;;;;;;;19.64;55.97;99481.09;4470382;31;33139;-73
2021/07/04 02:03:08;;;;;;;3.17;1.55;;;;;;;19.68;55.97;99476.91;4490732;31;33736;-75
2021/07/04 02:05:38;;;;;;;1.70;1.42;;;;;;;19.64;55.97;99481.09;4475884;31;33485;-73
2021/07/04 02:08:08;;;;;;;2.75;1.75;;;;;;;19.58;55.89;99484.63;4490611;31;33676;-75
2021/07/04 02:10:38;;;;;;;1.65;1.25;;;;;;;19.63;55.83;99482.13;4489562;31;34044;-75
2021/07/04 02:13:08;;;;;;;2.28;1.52;;;;;;;19.63;55.56;99487.53;4476101;31;33066;-72
2021/07/04 02:15:41;;;;;;;2.12;1.35;;;;;;;19.60;55.94;99477.97;4462477;31;34361;-74
2021/07/04 02:18:12;;;;;;;2.20;1.62;;;;;;;19.46;56.52;99484.41;4489373;31;33495;-74
2021/07/04 02:20:42;;;;;;;2.40;1.70;;;;;;;19.50;56.57;99482.97;4492072;31;33359;-75
2021/07/04 02:23:19;;;;;;;3.22;2.12;;;;;;;19.49;56.47;99489.41;4492388;31;33553;-71
2021/07/04 02:25:50;;;;;;;3.45;1.37;;;;;;;19.52;56.20;99486.28;4491315;31;35420;-73
2021/07/04 02:28:20;;;;;;;2.10;1.40;;;;;;;19.37;56.86;99484.84;4492107;31;36017;-74
2021/07/04 02:30:51;;;;;;;2.12;1.83;;;;;;;19.32;57.20;99490.00;4477372;31;34221;-73
2021/07/04 02:33:20;;;;;;;1.77;1.45;;;;;;;19.26;57.24;99486.28;4476490;31;32678;-73
2021/07/04 02:35:55;;;;;;;2.47;1.87;;;;;;;19.13;58.20;99490.78;4488859;31;34910;-71
2021/07/04 02:38:24;;;;;;;1.90;1.20;;;;;;;19.27;57.48;99495.22;4492658;31;34348;-74
2021/07/04 02:40:55;;;;;;;1.60;1.08;;;;;;;19.37;57.16;99491.03;4482772;31;33230;-73
2021/07/04 02:43:24;;;;;;;6.03;2.10;;;;;;;19.20;57.66;99495.22;4491885;31;33442;-74
2021/07/04 02:45:54;;;;;;;2.85;1.37;;;;;;;19.39;56.79;99491.69;4491987;31;34873;-72
2021/07/04 02:48:22;;;;;;;2.90;1.50;;;;;;;19.31;56.84;99482.97;4492367;31;33906;-73
2021/07/04 02:50:50;;;;;;;;;;;;;;;19.37;56.88;99482.94;4492399;31;34253;-71
2021/07/04 02:53:19;;;;;;;2.90;1.35;;;;;;;19.28;57.39;99488.78;4481777;31;33907;-75
2021/07/04 02:55:47;;;;;;;1.55;0.98;;;;;;;19.35;56.90;99489.63;4478900;31;35762;-73
2021/07/04 02:58:16;;;;;;;4.07;1.67;;;;;;;19.28;57.16;99491.47;4482070;31;34160;-73
2021/07/04 03:00:45;;;;;;;2.85;2.00;;;;;;;19.42;56.75;99498.53;4477418;31;33708;-74
2021/07/04 03:03:14;;;;;;;2.92;2.30;;;;;;;19.31;57.29;99505.37;4483047;31;33367;-73
2021/07/04 03:05:43;;;;;;;1.35;1.27;;;;;;;19.20;57.91;99506.00;4482802;31;35261;-75
2021/07/04 03:08:11;;;;;;;2.03;1.80;;;;;;;19.31;57.32;99499.13;4491840;31;34836;-70
2021/07/04 03:10:40;;;;;;;1.65;1.20;;;;;;;19.30;57.68;99501.03;4477222;31;33524;-74
2021/07/04 03:13:09;;;;;;;3.28;1.48;;;;;;;19.24;57.84;99503.72;4476321;31;32416;-71
2021/07/04 03:15:37;;;;;;;;;;;;;;;19.20;58.04;99506.00;4491974;31;34894;-72
2021/07/04 03:18:06;;;;;;;2.90;1.77;;;;;;;19.25;57.84;99508.91;4488485;31;34698;-70
2021/07/04 03:20:34;;;;;;;3.25;1.85;;;;;;;19.36;57.25;99510.16;4491877;31;33039;-73
2021/07/04 03:23:03;;;;;;;3.78;2.42;;;;;;;19.27;57.71;99516.78;4491812;31;33588;-73
2021/07/04 03:25:31;;;;;;;2.72;1.23;;;;;;;19.44;57.09;99499.16;4488911;31;36429;-74
2021/07/04 03:28:01;;;;;;;2.85;2.65;;;;;;;19.51;56.58;99511.59;4481541;31;35105;-75
2021/07/04 03:30:29;;;;;;;3.58;1.90;;;;;;;19.56;56.47;99498.31;4477214;31;33215;-74
2021/07/04 03:32:58;;;;;;;1.33;0.93;;;;;;;19.54;56.88;99500.38;4477834;31;35131;-74
2021/07/04 03:35:26;;;;;;;2.47;1.17;;;;;;;19.69;56.77;99494.78;4491587;31;35839;-74
2021/07/04 03:37:55;;;;;;;1.62;1.25;;;;;;;19.79;56.65;99492.47;4486013;31;34260;-74
2021/07/04 03:40:23;;;;;;;1.60;1.45;;;;;;;19.87;55.97;99501.19;4492181;31;32660;-74
2021/07/04 03:42:51;;;;;;;2.85;1.92;;;;;;;19.78;56.81;99502.47;4478668;31;34189;-76
2021/07/04 03:45:19;;;;;;;3.25;2.58;;;;;;;19.84;56.78;99498.94;4492233;31;36978;-73
2021/07/04 03:47:48;;;;;;;2.97;2.60;;;;;;;19.93;56.28;99508.44;4476059;31;34951;-75
2021/07/04 03:53:10;;;;;;;3.50;2.00;;;;;;;19.92;56.43;99500.56;4485302;26;36030;-73
2021/07/04 03:55:40;;;;;;;2.03;1.42;;;;;;;19.78;57.08;99507.00;4469551;32;35548;-73
2021/07/04 03:58:08;;;;;;;2.75;1.20;;;;;;;19.96;56.65;99507.19;4459391;32;35343;-72
2021/07/04 04:00:36;;;;;;;2.47;1.30;;;;;;;20.11;56.03;99508.63;4459109;32;33547;-72
2021/07/04 04:03:05;;;;;;;2.28;1.40;;;;;;;19.92;56.72;99503.25;4459789;32;34124;-73
2021/07/04 04:05:33;;;;;;;2.35;2.05;;;;;;;19.96;57.25;99504.50;4458771;32;34609;-75
2021/07/04 04:08:06;;;;;;;3.72;2.30;;;;;;;20.25;55.79;99501.31;4471106;32;34285;-73
2021/07/04 04:10:35;;;;;;;1.98;1.87;;;;;;;20.15;56.67;99498.25;4461181;32;33495;-73
2021/07/04 04:13:03;;;;;;;2.20;2.00;;;;;;;20.35;55.79;99494.44;4458359;32;33838;-73
2021/07/04 04:15:33;;;;;;;2.70;1.75;;;;;;;20.14;56.46;99500.13;4460638;32;35187;-73
2021/07/04 04:18:02;;;;;;;3.70;1.87;;;;;;;19.98;57.05;99492.44;4458825;32;34276;-74
2021/07/04 04:20:30;;;;;;;4.43;1.83;;;;;;;20.14;56.53;99499.28;4460416;32;33959;-73
2021/07/04 04:22:58;;;;;;;2.10;1.90;;;;;;;20.16;56.89;99497.19;4458544;32;34036;-73
2021/07/04 04:25:27;;;;;;;4.20;2.03;;;;;;;19.93;57.30;99500.34;4467358;32;35483;-73
2021/07/04 04:27:56;;;;;;;3.42;1.55;;;;;;;20.20;56.89;99499.25;4459395;32;35507;-73
2021/07/04 04:30:24;;;;;;;3.17;1.95;;;;;;;20.18;57.23;99504.06;4464566;32;33906;-73
2021/07/04 04:32:52;;;;;;;;;;;;;;;19.95;57.51;99503.69;4471090;32;33437;-73
2021/07/04 04:35:20;;;;;;;1.65;1.40;;;;;;;20.25;56.90;99494.06;4467825;32;37290;-73
2021/07/04 04:37:48;;;;;;;3.53;2.60;;;;;;;20.33;56.67;99487.59;4461259;32;34106;-72
2021/07/04 04:40:17;;;;;;;1.90;0.95;;;;;;;20.39;56.66;99495.66;4464773;32;33796;-74
2021/07/04 04:42:44;;;;;;;1.75;1.62;;;;;;;20.55;55.66;99489.78;4458560;32;34450;-73
2021/07/04 04:45:12;;;;;;;2.60;1.45;;;;;;;20.71;55.76;99484.69;4458418;32;35973;-73
2021/07/04 04:47:40;;;;;;;2.05;1.62;;;;;;;21.06;54.99;99496.78;4460776;32;33787;-73
2021/07/04 04:50:09;;;;;;;1.75;1.65;;;;;;;21.05;54.65;99494.31;4460496;32;33064;-73
2021/07/04 04:52:37;;;;;;;1.70;1.42;;;;;;;21.26;53.89;99492.06;4459025;32;33385;-74
2021/07/04 04:55:07;;;;;;;2.30;1.42;;;;;;;21.05;53.86;99497.00;4460452;32;35852;-73
2021/07/04 04:57:36;;;;;;;4.30;1.52;;;;;;;21.12;53.70;99501.34;4459382;32;34609;-73
2021/07/04 05:00:12;;;;;;;1.90;1.15;;;;;;;21.37;53.86;99501.38;4460975;32;33000;-74
2021/07/04 05:02:43;;;;;;;0.93;0.70;;;;;;;21.33;53.56;99487.44;4471213;32;34663;-74
2021/07/04 05:05:12;;;;;;;1.65;0.90;;;;;;;21.51;53.51;99484.78;4451997;32;35667;-74
2021/07/04 05:07:41;;;;;;;1.70;1.42;;;;;;;21.68;52.93;99488.63;4461585;32;34144;-73
2021/07/04 05:10:10;;;;;;;1.20;1.00;;;;;;;21.71;52.74;99492.78;4463996;32;33689;-73
2021/07/04 05:12:38;;;;;;;1.17;1.08;;;;;;;21.94;52.22;99482.13;4461556;32;35000;-74
2021/07/04 05:15:07;;;;;;;1.00;0.90;;;;;;;21.86;52.98;99495.97;4455318;32;34994;-73
2021/07/04 05:17:35;;;;;;;1.95;1.30;;;;;;;22.26;51.84;99489.06;4459430;32;34626;-73
2021/07/04 05:20:05;;;;;;;0.93;0.85;;;;;;;22.59;51.25;99490.37;4467692;32;34079;-73
2021/07/04 05:22:34;;;;;;;1.60;0.82;;;;;;;22.32;51.22;99494.44;4454162;32;33340;-73
2021/07/04 05:25:03;;;;;;;1.58;1.35;;;;;;;22.45;51.26;99493.47;4465717;32;35241;-74
2021/07/04 05:27:31;;;;;;;0.98;0.95;;;;;;;22.71;50.58;99490.41;4461269;32;34329;-73
2021/07/04 05:29:59;;;;;;;0.85;0.80;;;;;;;22.79;50.67;99482.78;4460308;32;33795;-73
2021/07/04 05:32:27;;;;;;;2.62;1.40;;;;;;;22.91;50.19;99485.53;4461740;32;33688;-74
2021/07/04 05:35:04;;;;;;;1.52;1.23;;;;;;;23.03;49.94;99484.50;4463844;32;35220;-75
2021/07/04 05:37:35;;;;;;;1.20;1.10;;;;;;;23.21;49.71;99483.66;4463882;32;33505;-76
2021/07/04 05:40:10;;;;;;;1.90;1.37;;;;;;;23.40;49.37;99482.53;4459772;32;34076;-74
2021/07/04 05:42:41;;;;;;;2.17;1.10;;;;;;;23.47;49.20;99481.34;4458443;32;33705;-74
2021/07/04 05:45:12;;;;;;;5.90;2.67;;;;;;;23.47;49.07;99492.22;4459774;32;35424;-75
2021/07/04 05:47:40;;;;;;;1.50;1.40;;;;;;;23.40;49.39;99487.97;4459664;32;34730;-76
2021/07/04 05:50:08;;;;;;;;;;;;;;;23.03;50.12;99495.38;4459906;32;34054;-72
2021/07/04 05:52:35;;;;;;;1.98;1.48;;;;;;;23.06;50.04;99499.50;4460125;32;34328;-74
2021/07/04 05:55:04;;;;;;;2.65;1.17;;;;;;;23.42;48.88;99494.81;4460852;32;34770;-74
2021/07/04 05:57:32;;;;;;;2.15;0.98;;;;;;;23.47;49.14;99494.09;4464055;32;34213;-74
2021/07/04 05:59:59;;;;;;;2.10;1.75;;;;;;;23.55;48.45;99494.59;4463693;32;33748;-72
2021/07/04 06:02:27;;;;;;;2.05;1.60;;;;;;;23.58;48.58;99498.72;4460283;32;33896;-73
2021/07/04 06:04:55;;;;;;;;;;;;;;;23.41;48.25;99505.91;4463033;32;35553;-74
2021/07/04 06:07:22;;;;;;;1.80;1.70;;;;;;;23.77;47.39;99505.72;4462801;32;33439;-77
2021/07/04 06:09:50;;;;;;;1.48;1.25;;;;;;;23.50;48.56;99504.50;4457026;32;34147;-74
2021/07/04 06:12:18;;;;;;;1.02;0.98;;;;;;;23.19;49.37;99502.88;4457874;32;33538;-74
2021/07/04 06:14:46;;;;;;;3.35;1.40;;;;;;;23.59;48.92;99505.81;4460289;32;35941;-73
2021/07/04 06:17:13;;;;;;;1.15;0.95;;;;;;;23.28;49.62;99515.06;4465823;32;34537;-75
2021/07/04 06:19:41;;;;;;;3.87;1.77;;;;;;;23.29;49.98;99503.16;4460724;32;33476;-75
2021/07/04 06:22:09;;;;;;;1.55;1.45;;;;;;;23.26;48.87;99511.78;4457650;32;33833;-75
2021/07/04 06:24:37;;;;;;;1.67;1.58;;;;;;;23.17;49.56;99510.44;4457743;32;36385;-75
2021/07/04 06:27:06;;;;;;;1.75;1.58;;;;;;;23.15;49.44;99509.84;4463414;32;33761;-75
2021/07/04 06:29:34;;;;;;;2.25;1.10;;;;;;;23.74;48.95;99501.56;4445930;32;32046;-75
2021/07/04 06:32:03;;;;;;;2.08;1.55;;;;;;;23.98;48.17;99504.09;4460606;32;33819;-76
2021/07/04 06:34:30;;;;;;;0.65;0.60;;;;;;;23.94;48.58;99504.78;4450803;32;35120;-75
2021/07/04 06:36:58;;;;;;;1.83;1.25;;;;;;;23.95;47.61;99506.44;4459507;32;34308;-75
2021/07/04 06:39:26;;;;;;;1.85;1.75;;;;;;;24.20;47.17;99496.97;4449495;32;32141;-74
2021/07/04 06:41:54;;;;;;;2.55;1.52;;;;;;;24.38;46.77;99502.25;4466342;32;34826;-73
2021/07/04 06:44:22;;;;;;;5.25;1.10;;;;;;;24.45;46.34;99494.78;4456969;32;35633;-74
2021/07/04 06:46:53;;;;;;;1.58;1.33;;;;;;;24.42;46.40;99494.44;4469878;32;35618;-74
2021/07/04 06:49:21;;;;;;;1.05;0.70;;;;;;;24.58;46.20;99497.28;4468973;32;34149;-74
2021/07/04 06:51:52;;;;;;;;;;;;;;;24.62;45.99;99501.16;4439577;32;32994;-74
2021/07/04 06:54:22;;;;;;;1.62;1.50;;;;;;;24.67;46.51;99511.31;4459595;32;35363;-75
2021/07/04 06:56:52;;;;;;;1.23;1.15;;;;;;;24.33;46.27;99514.91;4467170;32;34563;-75
2021/07/04 06:59:20;;;;;;;2.30;1.87;;;;;;;24.73;45.91;99504.94;4463440;32;33029;-74
2021/07/04 07:01:50;;;;;;;1.40;1.12;;;;;;;24.64;45.97;99503.66;4457957;32;33211;-76
2021/07/04 07:04:19;;;;;;;1.67;1.20;;;;;;;25.03;44.55;99513.69;4450368;32;35686;-75
2021/07/04 07:06:48;;;;;;;1.12;1.02;;;;;;;25.19;44.72;99505.53;4457851;32;34569;-73
2021/07/04 07:09:20;;;;;;;1.85;1.42;;;;;;;25.52;43.51;99502.91;4455901;32;32184;-73
2021/07/04 07:11:52;;;;;;;0.70;0.70;;;;;;;25.38;43.46;99501.56;4454334;32;34896;-73
2021/07/04 07:14:21;;;;;;;1.17;1.00;;;;;;;25.92;42.45;99489.94;4463849;32;35967;-76
2021/07/04 07:16:49;;;;;;;2.22;1.00;;;;;;;25.95;42.10;99485.91;4440142;32;33467;-75
2021/07/04 07:19:18;;;;;;;1.52;1.30;;;;;;;25.30;42.11;99496.50;4460730;32;33408;-75
2021/07/04 07:21:47;;;;;;;1.58;1.40;;;;;;;25.83;41.91;99491.41;4471915;32;33586;-74
2021/07/04 07:24:15;;;;;;;1.48;1.35;;;;;;;25.73;41.62;99488.53;4457774;32;34708;-75
2021/07/04 07:26:49;;;;;;;2.05;1.10;;;;;;;25.95;42.05;99488.63;4442745;32;34954;-75
2021/07/04 07:29:19;;;;;;;1.40;1.30;;;;;;;26.15;40.22;99492.44;4467532;32;33019;-75
2021/07/04 07:32:07;;;;;;;3.00;1.75;;;;;;;26.41;39.67;99477.25;4471593;32;33929;-76
2021/07/04 07:35:37;;;;;;;1.62;1.52;;;;;;;26.32;39.30;99489.69;4467979;32;36505;-75
2021/07/04 07:38:12;;;;;;;1.15;1.02;;;;;;;26.65;39.26;99486.84;4464260;32;34857;-75
2021/07/04 07:41:29;;;;;;;3.08;1.75;;;;;;;26.58;39.06;99492.50;4464222;32;34409;-74
2021/07/04 07:44:02;;;;;;;2.25;1.05;;;;;;;27.12;38.26;99494.22;4461842;32;33508;-75
2021/07/04 07:46:30;;;;;;;1.08;0.80;;;;;;;27.27;37.62;99484.28;4468823;32;34639;-75
2021/07/04 07:49:00;;;;;;;1.27;1.12;;;;;;;27.68;37.78;99483.53;4468172;32;34198;-75
2021/07/04 07:51:35;;;;;;;2.33;1.52;;;;;;;27.66;37.61;99484.91;4472545;31;32369;-77
2021/07/04 07:54:32;;;;;;;1.92;1.75;;;;;;;27.76;36.77;99482.28;4442617;32;32150;-74
2021/07/04 07:57:02;;;;;;;1.50;1.37;;;;;;;27.46;36.55;99484.72;4468344;32;34926;-75
2021/07/04 07:59:34;;;;;;;1.25;1.15;;;;;;;27.47;37.24;99483.66;4459019;32;33232;-74
2021/07/04 08:02:16;;;;;;;1.27;1.00;;;;;;;27.73;36.74;99480.88;4463938;32;34226;-75
2021/07/04 08:05:11;;;;;;;1.08;1.02;;;;;;;27.19;37.11;99486.69;4460285;32;34679;-74
2021/07/04 08:07:52;;;;;;;2.55;0.82;;;;;;;27.09;37.56;99492.81;4455822;32;35125;-75
2021/07/04 08:11:34;;;;;;;1.15;0.70;;;;;;;27.43;36.69;99488.81;4458169;32;34052;-75
2021/07/04 08:14:05;;;;;;;2.20;1.45;;;;;;;27.74;37.18;99482.53;4469452;32;33508;-74
2021/07/04 08:16:54;;;;;;;1.12;1.08;;;;;;;27.79;36.61;99481.75;4470016;32;34274;-75
2021/07/04 08:19:24;;;;;;;1.27;1.17;;;;;;;27.90;36.36;99476.09;4455733;32;36834;-75
2021/07/04 08:21:52;;;;;;;2.08;1.62;;;;;;;28.03;36.18;99475.63;4464048;32;33821;-75
2021/07/04 08:24:21;;;;;;;;;;;;;;;27.91;37.30;99471.44;4460048;32;33272;-75
2021/07/04 08:26:49;;;;;;;1.67;0.95;;;;;;;28.25;36.10;99478.22;4460787;32;35247;-74
2021/07/04 08:29:18;;;;;;;2.10;1.10;;;;;;;28.21;35.13;99475.19;4468126;32;35741;-75
2021/07/04 08:31:46;;;;;;;1.87;1.37;;;;;;;28.03;36.00;99481.09;4461036;32;34248;-75
2021/07/04 08:34:14;;;;;;;1.23;1.12;;;;;;;28.35;36.02;99478.31;4453511;32;34478;-76
2021/07/04 08:36:52;;;;;;;1.92;0.93;;;;;;;28.53;34.49;99478.69;4459378;32;33898;-75
2021/07/04 08:43:34;;;;;;;1.02;0.93;;;;;;;28.69;34.50;99474.87;4392725;32;33030;-75
2021/07/04 08:46:11;;;;;;;1.33;1.00;;;;;;;28.58;33.36;99466.91;4377419;32;32493;-74
2021/07/04 08:48:41;;;;;;;1.52;1.05;;;;;;;28.65;34.51;99467.47;4388406;32;33794;-74
2021/07/04 08:51:09;;;;;;;1.35;1.25;;;;;;;28.56;33.16;99461.72;4376673;32;35549;-76
2021/07/04 08:53:38;;;;;;;3.20;1.55;;;;;;;28.71;30.35;99458.19;4394014;32;34460;-76
2021/07/04 08:56:07;;;;;;;1.27;1.17;;;;;;;28.24;30.87;99457.44;4373736;32;33149;-76
2021/07/04 08:58:37;;;;;;;1.62;1.52;;;;;;;28.96;30.80;99456.38;4382564;32;33522;-75
2021/07/04 09:01:29;;;;;;;2.67;1.40;;;;;;;29.21;30.84;99458.31;4382230;32;36252;-75
2021/07/04 09:04:19;;;;;;;0.80;0.80;;;;;;;29.51;29.52;99455.62;4364935;32;35277;-74
2021/07/04 09:07:14;;;;;;;3.15;1.10;;;;;;;29.69;28.61;99447.69;4381010;32;33594;-76
2021/07/04 09:10:19;;;;;;;1.37;1.27;;;;;;;29.33;30.00;99446.00;4373882;32;33994;-74
2021/07/04 09:12:52;;;;;;;1.55;1.00;;;;;;;29.59;30.12;99447.69;4374818;32;33481;-75
2021/07/04 09:15:25;;;;;;;1.25;1.17;;;;;;;29.83;29.62;99445.19;4375899;32;34306;-74
2021/07/04 09:18:01;;;;;;;2.00;1.25;;;;;;;29.48;29.28;99447.94;4410762;32;33248;-75
2021/07/04 09:20:37;;;;;;;1.62;1.40;;;;;;;29.81;28.94;99433.69;4460809;32;33718;-75
2021/07/04 09:23:45;;;;;;;;;;;;;;;;;;;;;
2021/07/04 09:26:39;;;;;;;1.95;1.65;;;;;;;29.38;30.02;99436.97;4466008;32;33696;-75
2021/07/04 09:29:10;;;;;;;1.67;1.00;;;;;;;28.72;30.49;99430.56;4464711;32;33798;-76
2021/07/04 09:32:28;;;;;;;1.30;1.02;;;;;;;28.98;29.83;99440.47;4460410;32;34879;-73
2021/07/04 09:35:20;;;;;;;1.35;1.25;;;;;;;29.00;30.32;99432.84;4460967;32;34665;-76
2021/07/04 09:39:22;;;;;;;1.58;1.40;;;;;;;29.16;30.18;99423.53;4431026;32;34507;-73
2021/07/04 09:46:13;;;;;;;1.75;1.12;;;;;;;29.66;31.11;99417.25;4450770;32;471183;-75
2021/07/04 09:49:02;;;;;;;1.33;1.15;;;;;;;29.55;31.31;99421.09;4459590;32;36897;-74
2021/07/04 09:51:31;;;;;;;1.12;1.02;;;;;;;29.34;31.29;99416.69;4463485;32;34283;-75
2021/07/04 09:54:11;;;;;;;1.80;1.40;;;;;;;29.51;30.90;99415.34;4459630;32;33471;-73
2021/07/04 09:56:39;;;;;;;1.48;1.15;;;;;;;29.72;31.61;99422.44;4458207;32;33150;-74
2021/07/04 09:59:20;;;;;;;2.12;1.92;;;;;;;29.90;31.07;99415.56;4454120;32;35031;-72
2021/07/04 10:01:50;;;;;;;1.30;1.20;;;;;;;29.97;31.43;99416.06;4435060;32;33315;-74
2021/07/04 10:04:26;;;;;;;1.65;1.35;;;;;;;30.38;30.43;99401.16;4460654;32;33390;-73
2021/07/04 11:23:55;;;;;;;0.85;0.85;;;;;;;36.54;19.54;99324.72;4453455;32;34002;-74
2021/07/04 12:52:23;;;;;;;0.73;0.73;;;;;;;36.48;16.91;99235.38;4467661;32;34870;-76
2021/07/04 12:59:18;;;;;;;0.52;0.52;;;;;;;37.11;17.27;99237.47;4286052;33;34392;-77
2021/07/04 13:02:35;;;;;;;1.15;1.00;;;;;;;37.11;17.40;99245.78;4284942;33;35814;-76
2021/07/04 13:22:44;;;;;;;1.00;0.90;;;;;;;35.00;20.84;99254.06;4281730;33;32227;-76
2021/07/04 14:07:27;;;;;;;1.25;1.10;;;;;;;36.01;19.73;99239.06;4467291;32;34978;-76
2021/07/04 14:45:21;;;;;;;1.08;0.80;;;;;;;35.32;18.92;99220.59;4452987;32;34131;-75
2021/07/04 15:01:30;;;;;;;0.77;0.77;;;;;;;35.61;18.54;99208.97;4374486;32;33713;-75
2021/07/04 15:05:28;;;;;;;0.60;0.50;;;;;;;35.48;18.52;99198.84;4342520;32;33209;-76
2021/07/04 15:50:31;;;;;;;1.45;0.90;;;;;;;29.25;26.69;99190.91;4422519;32;34037;-75
2021/07/04 16:03:06;;;;;;;1.30;1.10;;;;;;;29.48;27.13;99179.28;4437532;32;34062;-75
2021/07/04 16:27:33;;;;;;;0.82;0.68;;;;;;;29.98;26.93;99157.13;4450726;32;35926;-75
2021/07/04 21:03:17;;;;;;;2.60;1.27;;;;;;;24.86;43.04;99172.66;4468393;32;33648;-75
2021/07/04 21:47:26;;;;;;;;;;;;;;;;;;;;;
2021/07/04 22:22:34;;;;;;;1.65;1.33;;;;;;;24.93;42.73;99176.81;4451933;32;35632;-75
